createdAt,value
2019-02-02T00:00:07.541Z,42.68
2019-02-02T00:01:07.540Z,42.69
2019-02-02T00:02:07.590Z,42.69
2019-02-02T00:03:07.534Z,42.78
2019-02-02T00:04:07.600Z,42.69
2019-02-02T00:05:07.583Z,42.69
2019-02-02T00:06:07.480Z,42.69
2019-02-02T00:07:07.566Z,42.49
2019-02-02T00:08:07.519Z,42.49
2019-02-02T00:09:07.547Z,42.38
2019-02-02T00:10:07.551Z,42.69
2019-02-02T00:11:07.443Z,42.60
2019-02-02T00:12:07.428Z,42.49
2019-02-02T00:13:07.407Z,43.00
2019-02-02T00:14:07.427Z,42.49
2019-02-02T00:15:07.493Z,43.00
2019-02-02T00:16:07.386Z,43.00
2019-02-02T00:17:07.488Z,43.10
2019-02-02T00:18:07.463Z,43.10
2019-02-02T00:19:07.381Z,43.08
2019-02-02T00:20:07.421Z,43.10
2019-02-02T00:21:07.328Z,43.10
2019-02-02T00:22:07.320Z,43.10
2019-02-02T00:23:07.381Z,43.08
2019-02-02T00:24:07.281Z,43.00
2019-02-02T00:25:07.420Z,42.90
2019-02-02T00:26:07.260Z,43.10
2019-02-02T00:27:07.261Z,42.97
2019-02-02T00:28:07.332Z,43.00
2019-02-02T00:29:07.255Z,43.20
2019-02-02T00:30:07.312Z,43.08
2019-02-02T00:31:07.333Z,43.00
2019-02-02T00:32:07.209Z,42.80
2019-02-02T00:33:07.274Z,43.18
2019-02-02T00:34:07.170Z,43.00
2019-02-02T00:35:07.183Z,43.18
2019-02-02T00:36:07.237Z,42.60
2019-02-02T00:37:07.192Z,42.97
2019-02-02T00:38:07.221Z,42.78
2019-02-02T00:39:07.233Z,42.78
2019-02-02T00:40:07.120Z,43.00
2019-02-02T00:41:07.097Z,43.18
2019-02-02T00:42:07.101Z,43.00
2019-02-02T00:43:07.143Z,43.08
2019-02-02T00:44:07.177Z,42.80
2019-02-02T00:45:07.063Z,43.00
2019-02-02T00:46:07.128Z,43.00
2019-02-02T00:47:07.043Z,43.20
2019-02-02T00:48:07.620Z,42.97
2019-02-02T00:49:07.051Z,43.20
2019-02-02T00:50:07.013Z,43.20
2019-02-02T00:51:07.002Z,42.78
2019-02-02T00:52:07.095Z,43.20
2019-02-02T00:53:06.982Z,43.20
2019-02-02T00:54:07.073Z,42.80
2019-02-02T00:55:06.952Z,43.00
2019-02-02T00:56:07.030Z,42.78
2019-02-02T00:57:07.005Z,43.20
2019-02-02T00:58:06.933Z,42.80
2019-02-02T00:59:07.012Z,43.20
2019-02-02T01:00:06.899Z,43.20
2019-02-02T01:01:07.670Z,42.69
2019-02-02T01:02:06.997Z,42.97
2019-02-02T01:03:06.884Z,43.20
2019-02-02T01:04:06.971Z,43.20
2019-02-02T01:05:06.948Z,43.20
2019-02-02T01:06:06.843Z,43.00
2019-02-02T01:07:06.903Z,43.20
2019-02-02T01:08:06.850Z,43.00
2019-02-02T01:09:06.889Z,43.00
2019-02-02T01:10:06.794Z,43.10
2019-02-02T01:11:06.779Z,43.20
2019-02-02T01:12:06.882Z,43.10
2019-02-02T01:13:06.752Z,42.97
2019-02-02T01:14:06.780Z,43.20
2019-02-02T01:15:06.825Z,43.20
2019-02-02T01:16:06.717Z,43.00
2019-02-02T01:17:06.812Z,42.60
2019-02-02T01:18:06.796Z,43.10
2019-02-02T01:19:06.732Z,42.49
2019-02-02T01:20:06.766Z,42.60
2019-02-02T01:21:06.787Z,42.69
2019-02-02T01:22:06.744Z,42.60
2019-02-02T01:23:06.724Z,42.60
2019-02-02T01:24:06.720Z,42.49
2019-02-02T01:25:06.723Z,42.80
2019-02-02T01:26:06.704Z,42.60
2019-02-02T01:27:06.748Z,42.69
2019-02-02T01:28:06.667Z,43.10
2019-02-02T01:29:06.668Z,42.49
2019-02-02T01:30:06.674Z,42.49
2019-02-02T01:31:06.659Z,42.49
2019-02-02T01:32:06.658Z,42.60
2019-02-02T01:33:06.685Z,42.80
2019-02-02T01:34:06.616Z,42.49
2019-02-02T01:35:06.626Z,42.69
2019-02-02T01:36:06.590Z,42.69
2019-02-02T01:37:06.587Z,42.40
2019-02-02T01:38:06.558Z,42.60
2019-02-02T01:39:06.594Z,42.60
2019-02-02T01:40:06.539Z,42.80
2019-02-02T01:41:06.528Z,42.49
2019-02-02T01:42:06.517Z,42.49
2019-02-02T01:43:06.515Z,42.69
2019-02-02T01:44:06.503Z,42.60
2019-02-02T01:45:06.449Z,42.80
2019-02-02T01:46:06.470Z,42.60
2019-02-02T01:47:06.469Z,42.60
2019-02-02T01:48:06.448Z,42.40
2019-02-02T01:49:06.453Z,42.60
2019-02-02T01:50:06.434Z,42.30
2019-02-02T01:51:06.442Z,42.40
2019-02-02T01:52:06.409Z,42.30
2019-02-02T01:53:06.443Z,42.30
2019-02-02T01:54:06.401Z,42.40
2019-02-02T01:55:06.389Z,43.10
2019-02-02T01:56:06.411Z,42.40
2019-02-02T01:57:06.354Z,42.19
2019-02-02T01:58:16.451Z,42.80
2019-02-02T01:59:07.329Z,41.79
2019-02-02T02:00:06.326Z,42.60
2019-02-02T02:01:06.314Z,42.60
2019-02-02T02:02:06.335Z,42.80
2019-02-02T02:03:06.289Z,42.19
2019-02-02T02:04:06.276Z,42.80
2019-02-02T02:05:06.268Z,42.60
2019-02-02T02:06:06.178Z,41.89
2019-02-02T02:07:06.286Z,41.89
2019-02-02T02:08:06.241Z,42.69
2019-02-02T02:09:06.237Z,42.69
2019-02-02T02:10:06.214Z,42.49
2019-02-02T02:11:06.192Z,42.40
2019-02-02T02:12:06.236Z,42.80
2019-02-02T02:13:06.181Z,42.60
2019-02-02T02:14:06.174Z,42.69
2019-02-02T02:15:06.157Z,42.60
2019-02-02T02:16:06.163Z,43.20
2019-02-02T02:17:06.158Z,43.10
2019-02-02T02:18:06.173Z,43.20
2019-02-02T02:19:06.140Z,42.90
2019-02-02T02:20:06.133Z,43.20
2019-02-02T02:21:06.139Z,43.30
2019-02-02T02:22:06.083Z,42.90
2019-02-02T02:23:05.993Z,43.00
2019-02-02T02:24:06.111Z,43.00
2019-02-02T02:25:06.050Z,43.10
2019-02-02T02:26:05.951Z,43.60
2019-02-02T02:27:06.026Z,43.60
2019-02-02T02:28:06.021Z,43.10
2019-02-02T02:29:05.999Z,42.69
2019-02-02T02:30:05.942Z,43.60
2019-02-02T02:31:05.914Z,42.49
2019-02-02T02:32:05.982Z,43.60
2019-02-02T02:33:05.970Z,43.40
2019-02-02T02:34:05.907Z,43.80
2019-02-02T02:35:05.984Z,43.00
2019-02-02T02:36:05.935Z,43.20
2019-02-02T02:37:05.922Z,42.90
2019-02-02T02:38:05.909Z,43.10
2019-02-02T02:39:05.924Z,43.00
2019-02-02T02:40:05.890Z,42.90
2019-02-02T02:41:05.931Z,43.00
2019-02-02T02:42:05.783Z,43.00
2019-02-02T02:43:05.892Z,43.60
2019-02-02T02:44:05.862Z,42.90
2019-02-02T02:45:05.830Z,42.80
2019-02-02T02:46:05.841Z,43.60
2019-02-02T02:47:05.830Z,43.10
2019-02-02T02:48:05.807Z,43.00
2019-02-02T02:49:05.789Z,43.00
2019-02-02T02:50:05.782Z,43.10
2019-02-02T02:51:05.769Z,43.00
2019-02-02T02:52:05.797Z,42.90
2019-02-02T02:53:05.749Z,43.10
2019-02-02T02:54:05.731Z,43.00
2019-02-02T02:55:05.750Z,43.00
2019-02-02T02:56:05.706Z,42.90
2019-02-02T02:57:05.706Z,43.30
2019-02-02T02:58:05.727Z,43.10
2019-02-02T02:59:05.702Z,42.90
2019-02-02T03:00:05.684Z,42.80
2019-02-02T03:01:05.667Z,42.80
2019-02-02T03:02:05.648Z,43.20
2019-02-02T03:03:05.655Z,43.20
2019-02-02T03:04:05.693Z,43.02
2019-02-02T03:05:05.630Z,42.92
2019-02-02T03:06:05.621Z,43.20
2019-02-02T03:07:05.603Z,43.00
2019-02-02T03:08:05.587Z,43.00
2019-02-02T03:09:05.593Z,42.90
2019-02-02T03:10:05.629Z,43.20
2019-02-02T03:11:05.550Z,43.20
2019-02-02T03:12:05.570Z,43.00
2019-02-02T03:13:05.530Z,43.00
2019-02-02T03:14:05.517Z,43.20
2019-02-02T03:15:05.541Z,43.20
2019-02-02T03:16:05.543Z,43.20
2019-02-02T03:17:05.480Z,43.00
2019-02-02T03:18:06.154Z,43.00
2019-02-02T03:19:05.462Z,42.60
2019-02-02T03:20:05.455Z,43.00
2019-02-02T03:21:05.439Z,43.00
2019-02-02T03:22:05.554Z,42.40
2019-02-02T03:23:05.433Z,42.60
2019-02-02T03:24:05.421Z,42.49
2019-02-02T03:25:05.407Z,42.49
2019-02-02T03:26:05.391Z,42.49
2019-02-02T03:27:05.419Z,42.60
2019-02-02T03:28:05.355Z,42.49
2019-02-02T03:29:05.355Z,42.49
2019-02-02T03:30:05.354Z,42.61
2019-02-02T03:31:05.347Z,42.60
2019-02-02T03:32:05.330Z,42.40
2019-02-02T03:33:05.357Z,42.60
2019-02-02T03:34:05.307Z,42.40
2019-02-02T03:35:05.213Z,42.49
2019-02-02T03:36:05.283Z,42.49
2019-02-02T03:37:05.268Z,42.49
2019-02-02T03:38:05.249Z,42.60
2019-02-02T03:39:05.288Z,42.69
2019-02-02T03:40:05.228Z,42.69
2019-02-02T03:41:05.231Z,42.60
2019-02-02T03:42:05.224Z,42.49
2019-02-02T03:43:05.201Z,42.80
2019-02-02T03:44:05.307Z,42.69
2019-02-02T03:45:05.211Z,42.80
2019-02-02T03:46:05.174Z,42.69
2019-02-02T03:47:05.171Z,42.69
2019-02-02T03:48:05.158Z,42.72
2019-02-02T03:49:05.142Z,42.82
2019-02-02T03:50:05.156Z,42.80
2019-02-02T03:51:05.109Z,42.82
2019-02-02T03:52:05.552Z,42.69
2019-02-02T03:53:05.104Z,42.69
2019-02-02T03:54:08.805Z,43.10
2019-02-02T03:55:05.140Z,42.72
2019-02-02T03:56:05.079Z,42.69
2019-02-02T03:57:05.066Z,42.72
2019-02-02T03:58:05.053Z,42.30
2019-02-02T03:59:07.004Z,42.41
2019-02-02T04:00:05.038Z,42.52
2019-02-02T04:01:05.067Z,42.69
2019-02-02T04:02:05.017Z,42.69
2019-02-02T04:03:04.999Z,42.60
2019-02-02T04:04:04.996Z,42.61
2019-02-02T04:05:04.981Z,42.21
2019-02-02T04:06:04.966Z,42.92
2019-02-02T04:07:04.991Z,42.72
2019-02-02T04:08:04.958Z,42.60
2019-02-02T04:09:04.937Z,42.41
2019-02-02T04:10:04.928Z,42.80
2019-02-02T04:11:04.842Z,42.61
2019-02-02T04:12:04.909Z,42.60
2019-02-02T04:13:04.911Z,42.61
2019-02-02T04:14:06.363Z,42.61
2019-02-02T04:15:04.771Z,42.61
2019-02-02T04:16:04.832Z,42.61
2019-02-02T04:17:04.829Z,42.61
2019-02-02T04:18:04.848Z,42.41
2019-02-02T04:19:04.740Z,42.61
2019-02-02T04:20:04.795Z,42.61
2019-02-02T04:21:04.704Z,42.82
2019-02-02T04:22:04.781Z,42.72
2019-02-02T04:23:04.695Z,42.92
2019-02-02T04:24:04.748Z,42.82
2019-02-02T04:25:04.713Z,42.92
2019-02-02T04:26:04.650Z,42.82
2019-02-02T04:27:04.625Z,42.92
2019-02-02T04:28:04.640Z,42.41
2019-02-02T04:29:04.697Z,42.92
2019-02-02T04:30:04.604Z,42.61
2019-02-02T04:31:04.639Z,42.92
2019-02-02T04:32:04.572Z,42.92
2019-02-02T04:33:04.683Z,42.72
2019-02-02T04:34:04.570Z,42.41
2019-02-02T04:35:04.545Z,42.41
2019-02-02T04:36:04.594Z,42.52
2019-02-02T04:37:04.610Z,42.61
2019-02-02T04:38:04.530Z,42.61
2019-02-02T04:39:04.592Z,42.32
2019-02-02T04:40:04.497Z,42.72
2019-02-02T04:41:04.569Z,42.72
2019-02-02T04:42:04.594Z,42.72
2019-02-02T04:43:04.549Z,42.82
2019-02-02T04:44:04.539Z,41.71
2019-02-02T04:45:04.557Z,41.71
2019-02-02T04:46:04.519Z,42.32
2019-02-02T04:47:04.503Z,42.21
2019-02-02T04:48:04.514Z,42.21
2019-02-02T04:49:04.481Z,42.21
2019-02-02T04:50:04.506Z,42.32
2019-02-02T04:51:04.459Z,42.61
2019-02-02T04:52:04.448Z,42.11
2019-02-02T04:53:04.460Z,42.61
2019-02-02T04:54:04.430Z,42.11
2019-02-02T04:55:04.410Z,42.21
2019-02-02T04:56:04.443Z,42.11
2019-02-02T04:57:04.399Z,42.10
2019-02-02T04:58:04.378Z,42.01
2019-02-02T04:59:04.369Z,42.41
2019-02-02T05:00:04.373Z,42.01
2019-02-02T05:01:04.346Z,42.01
2019-02-02T05:02:04.387Z,42.11
2019-02-02T05:03:04.332Z,42.21
2019-02-02T05:04:04.334Z,42.11
2019-02-02T05:05:04.330Z,42.21
2019-02-02T05:06:04.316Z,42.41
2019-02-02T05:07:04.303Z,42.21
2019-02-02T05:08:04.341Z,41.91
2019-02-02T05:09:04.280Z,42.11
2019-02-02T05:10:04.263Z,42.21
2019-02-02T05:11:04.258Z,42.21
2019-02-02T05:12:04.233Z,41.91
2019-02-02T05:13:04.237Z,42.11
2019-02-02T05:14:04.257Z,42.32
2019-02-02T05:15:04.223Z,42.41
2019-02-02T05:16:04.198Z,41.91
2019-02-02T05:17:04.195Z,42.32
2019-02-02T05:18:04.186Z,42.11
2019-02-02T05:19:04.217Z,41.91
2019-02-02T05:20:04.158Z,41.61
2019-02-02T05:21:04.145Z,42.32
2019-02-02T05:22:04.131Z,42.32
2019-02-02T05:23:04.035Z,41.89
2019-02-02T05:24:04.117Z,42.11
2019-02-02T05:25:04.157Z,41.82
2019-02-02T05:26:04.101Z,41.91
2019-02-02T05:27:04.110Z,42.11
2019-02-02T05:28:04.064Z,41.91
2019-02-02T05:29:04.048Z,42.01
2019-02-02T05:30:04.038Z,41.82
2019-02-02T05:31:04.068Z,42.11
2019-02-02T05:32:04.021Z,41.82
2019-02-02T05:33:04.000Z,41.91
2019-02-02T05:34:03.993Z,42.01
2019-02-02T05:35:03.976Z,41.82
2019-02-02T05:36:03.976Z,41.71
2019-02-02T05:37:03.986Z,42.32
2019-02-02T05:38:03.962Z,41.71
2019-02-02T05:39:03.951Z,41.71
2019-02-02T05:40:03.922Z,42.01
2019-02-02T05:41:03.928Z,41.21
2019-02-02T05:42:03.860Z,41.21
2019-02-02T05:43:03.906Z,41.21
2019-02-02T05:44:03.806Z,41.21
2019-02-02T05:45:03.909Z,41.31
2019-02-02T05:46:03.782Z,41.91
2019-02-02T05:47:03.870Z,41.21
2019-02-02T05:48:03.904Z,41.41
2019-02-02T05:49:03.830Z,41.31
2019-02-02T05:50:03.830Z,41.41
2019-02-02T05:51:03.840Z,41.11
2019-02-02T05:52:03.794Z,41.31
2019-02-02T05:53:03.779Z,41.31
2019-02-02T05:54:03.807Z,41.51
2019-02-02T05:55:03.762Z,41.11
2019-02-02T05:56:03.755Z,41.31
2019-02-02T05:57:03.749Z,41.61
2019-02-02T05:58:03.726Z,41.41
2019-02-02T05:59:03.721Z,41.41
2019-02-02T06:00:03.751Z,41.11
2019-02-02T06:01:03.703Z,41.31
2019-02-02T06:02:03.717Z,41.31
2019-02-02T06:03:03.678Z,41.31
2019-02-02T06:04:03.657Z,41.31
2019-02-02T06:05:03.648Z,41.31
2019-02-02T06:06:03.683Z,41.31
2019-02-02T06:07:03.638Z,41.31
2019-02-02T06:08:03.628Z,41.21
2019-02-02T06:09:03.609Z,41.51
2019-02-02T06:10:03.623Z,41.31
2019-02-02T06:11:03.613Z,41.41
2019-02-02T06:12:03.662Z,41.31
2019-02-02T06:13:03.572Z,41.41
2019-02-02T06:14:03.561Z,41.41
2019-02-02T06:15:03.566Z,41.41
2019-02-02T06:16:03.527Z,41.31
2019-02-02T06:17:03.429Z,41.51
2019-02-02T06:18:03.549Z,41.41
2019-02-02T06:19:03.413Z,41.41
2019-02-02T06:20:03.489Z,41.61
2019-02-02T06:21:03.476Z,41.41
2019-02-02T06:22:03.469Z,41.61
2019-02-02T06:23:03.459Z,41.82
2019-02-02T06:24:03.481Z,41.82
2019-02-02T06:25:03.439Z,42.01
2019-02-02T06:26:03.358Z,42.01
2019-02-02T06:27:03.423Z,42.01
2019-02-02T06:28:03.410Z,41.91
2019-02-02T06:29:03.340Z,42.01
2019-02-02T06:30:04.785Z,42.01
2019-02-02T06:31:03.298Z,42.01
2019-02-02T06:32:11.507Z,41.82
2019-02-02T06:33:04.265Z,41.82
2019-02-02T06:34:03.246Z,41.82
2019-02-02T06:35:03.283Z,41.91
2019-02-02T06:36:03.747Z,42.01
2019-02-02T06:37:03.374Z,42.11
2019-02-02T06:38:03.306Z,41.51
2019-02-02T06:39:03.292Z,41.61
2019-02-02T06:40:03.285Z,41.41
2019-02-02T06:41:03.182Z,41.31
2019-02-02T06:42:03.175Z,41.31
2019-02-02T06:43:03.264Z,41.41
2019-02-02T06:44:03.139Z,41.31
2019-02-02T06:45:03.146Z,41.51
2019-02-02T06:46:03.211Z,41.31
2019-02-02T06:47:03.107Z,41.31
2019-02-02T06:48:03.140Z,41.41
2019-02-02T06:49:03.092Z,41.31
2019-02-02T06:50:03.167Z,41.31
2019-02-02T06:51:03.077Z,41.21
2019-02-02T06:52:03.141Z,41.91
2019-02-02T06:53:03.047Z,42.11
2019-02-02T06:54:03.077Z,41.91
2019-02-02T06:55:03.120Z,41.82
2019-02-02T06:56:02.999Z,41.41
2019-02-02T06:57:03.018Z,41.31
2019-02-02T06:58:02.985Z,41.41
2019-02-02T06:59:02.983Z,41.31
2019-02-02T07:00:02.997Z,41.59
2019-02-02T07:01:02.976Z,42.01
2019-02-02T07:02:02.994Z,41.91
2019-02-02T07:03:02.936Z,41.82
2019-02-02T07:04:02.944Z,41.51
2019-02-02T07:05:02.954Z,42.01
2019-02-02T07:06:02.952Z,41.91
2019-02-02T07:07:02.908Z,41.91
2019-02-02T07:08:02.912Z,41.82
2019-02-02T07:09:02.960Z,41.71
2019-02-02T07:10:02.909Z,40.81
2019-02-02T07:11:02.865Z,41.01
2019-02-02T07:12:02.839Z,42.01
2019-02-02T07:13:02.832Z,41.01
2019-02-02T07:14:02.831Z,41.01
2019-02-02T07:15:02.803Z,40.81
2019-02-02T07:16:02.852Z,41.21
2019-02-02T07:17:02.780Z,41.21
2019-02-02T07:18:02.775Z,41.31
2019-02-02T07:19:02.772Z,41.21
2019-02-02T07:20:02.741Z,41.11
2019-02-02T07:21:02.750Z,41.11
2019-02-02T07:22:02.760Z,41.21
2019-02-02T07:23:02.732Z,41.21
2019-02-02T07:24:02.719Z,41.11
2019-02-02T07:25:02.790Z,40.91
2019-02-02T07:26:02.734Z,41.31
2019-02-02T07:27:02.707Z,41.31
2019-02-02T07:28:02.763Z,41.11
2019-02-02T07:29:02.664Z,41.71
2019-02-02T07:30:05.054Z,41.41
2019-02-02T07:31:02.727Z,41.21
2019-02-02T07:32:02.755Z,41.89
2019-02-02T07:33:02.742Z,42.41
2019-02-02T07:34:02.680Z,42.61
2019-02-02T07:35:02.725Z,42.69
2019-02-02T07:36:02.654Z,42.80
2019-02-02T07:37:02.653Z,43.00
2019-02-02T07:38:02.659Z,42.80
2019-02-02T07:39:02.625Z,43.10
2019-02-02T07:40:02.618Z,43.40
2019-02-02T07:41:02.635Z,44.31
2019-02-02T07:42:02.538Z,43.70
2019-02-02T07:43:02.610Z,43.50
2019-02-02T07:44:02.593Z,43.90
2019-02-02T07:45:02.474Z,43.00
2019-02-02T07:46:02.550Z,42.90
2019-02-02T07:47:02.535Z,43.40
2019-02-02T07:48:02.559Z,43.70
2019-02-02T07:49:02.515Z,43.40
2019-02-02T07:50:02.439Z,43.20
2019-02-02T07:51:02.420Z,44.10
2019-02-02T07:52:02.432Z,43.90
2019-02-02T07:53:02.399Z,43.90
2019-02-02T07:54:02.409Z,44.10
2019-02-02T07:55:02.373Z,43.90
2019-02-02T07:56:02.379Z,44.00
2019-02-02T07:57:02.433Z,43.90
2019-02-02T07:58:02.344Z,43.60
2019-02-02T07:59:02.380Z,43.80
2019-02-02T08:00:02.399Z,43.90
2019-02-02T08:01:02.337Z,43.80
2019-02-02T08:02:02.312Z,43.60
2019-02-02T08:03:02.287Z,43.70
2019-02-02T08:04:02.273Z,43.90
2019-02-02T08:05:02.285Z,43.70
2019-02-02T08:06:02.248Z,43.90
2019-02-02T08:07:02.253Z,43.70
2019-02-02T08:08:02.237Z,43.60
2019-02-02T08:09:02.259Z,43.60
2019-02-02T08:10:02.208Z,43.90
2019-02-02T08:11:02.198Z,44.00
2019-02-02T08:12:02.182Z,43.88
2019-02-02T08:13:02.187Z,43.78
2019-02-02T08:14:02.158Z,43.08
2019-02-02T08:15:02.201Z,43.00
2019-02-02T08:16:02.155Z,42.90
2019-02-02T08:17:02.144Z,42.90
2019-02-02T08:18:02.129Z,42.90
2019-02-02T08:19:02.119Z,42.80
2019-02-02T08:20:02.121Z,42.88
2019-02-02T08:21:02.138Z,42.90
2019-02-02T08:22:02.160Z,42.90
2019-02-02T08:23:02.147Z,42.90
2019-02-02T08:24:02.065Z,43.10
2019-02-02T08:25:02.128Z,43.10
2019-02-02T08:26:02.188Z,42.90
2019-02-02T08:27:02.027Z,43.30
2019-02-02T08:28:02.105Z,43.10
2019-02-02T08:29:02.095Z,43.28
2019-02-02T08:30:02.007Z,43.20
2019-02-02T08:31:02.064Z,43.20
2019-02-02T08:32:02.255Z,43.30
2019-02-02T08:33:02.044Z,43.40
2019-02-02T08:34:01.963Z,43.20
2019-02-02T08:35:01.921Z,43.40
2019-02-02T08:36:04.045Z,43.10
2019-02-02T08:37:01.902Z,43.28
2019-02-02T08:38:01.922Z,43.28
2019-02-02T08:39:02.018Z,43.00
2019-02-02T08:40:01.887Z,42.69
2019-02-02T08:41:01.891Z,42.69
2019-02-02T08:42:02.049Z,42.69
2019-02-02T08:43:01.847Z,42.69
2019-02-02T08:44:01.969Z,43.00
2019-02-02T08:45:01.916Z,42.69
2019-02-02T08:46:01.912Z,43.50
2019-02-02T08:47:01.797Z,43.30
2019-02-02T08:48:01.794Z,43.50
2019-02-02T08:49:01.785Z,43.00
2019-02-02T08:50:01.800Z,42.69
2019-02-02T08:51:01.757Z,43.40
2019-02-02T08:52:01.766Z,42.80
2019-02-02T08:53:01.741Z,42.80
2019-02-02T08:54:03.548Z,42.80
2019-02-02T08:55:01.873Z,43.00
2019-02-02T08:56:01.709Z,42.60
2019-02-02T08:57:01.701Z,42.69
2019-02-02T08:58:01.672Z,43.20
2019-02-02T08:59:01.681Z,43.20
2019-02-02T09:00:01.657Z,43.00
2019-02-02T09:01:04.278Z,43.00
2019-02-02T09:02:01.653Z,43.20
2019-02-02T09:03:01.644Z,43.40
2019-02-02T09:04:01.654Z,43.10
2019-02-02T09:05:01.698Z,43.30
2019-02-02T09:06:01.713Z,43.00
2019-02-02T09:07:01.802Z,42.69
2019-02-02T09:08:01.671Z,42.90
2019-02-02T09:09:01.645Z,43.90
2019-02-02T09:10:01.643Z,43.90
2019-02-02T09:11:01.645Z,43.60
2019-02-02T09:12:01.621Z,43.70
2019-02-02T09:13:01.557Z,43.70
2019-02-02T09:14:01.817Z,43.80
2019-02-02T09:15:01.507Z,43.80
2019-02-02T09:16:01.487Z,44.31
2019-02-02T09:17:01.487Z,44.00
2019-02-02T09:18:01.475Z,44.51
2019-02-02T09:19:01.497Z,44.40
2019-02-02T09:20:01.458Z,44.40
2019-02-02T09:21:01.461Z,44.08
2019-02-02T09:22:01.435Z,44.81
2019-02-02T09:23:06.188Z,44.31
2019-02-02T09:24:02.447Z,45.01
2019-02-02T09:25:01.387Z,45.09
2019-02-02T09:26:01.396Z,44.99
2019-02-02T09:27:01.389Z,44.81
2019-02-02T09:28:01.373Z,44.91
2019-02-02T09:29:01.349Z,44.48
2019-02-02T09:30:01.393Z,44.38
2019-02-02T09:31:01.330Z,44.38
2019-02-02T09:32:01.332Z,45.18
2019-02-02T09:33:01.323Z,45.69
2019-02-02T09:34:01.286Z,45.49
2019-02-02T09:35:01.291Z,45.69
2019-02-02T09:36:01.333Z,45.69
2019-02-02T09:37:01.275Z,45.49
2019-02-02T09:38:01.263Z,45.49
2019-02-02T09:39:01.249Z,45.99
2019-02-02T09:40:01.266Z,45.59
2019-02-02T09:41:01.227Z,45.59
2019-02-02T09:42:01.209Z,45.69
2019-02-02T09:43:01.187Z,45.39
2019-02-02T09:44:01.190Z,45.47
2019-02-02T09:45:01.219Z,45.59
2019-02-02T09:46:01.176Z,45.37
2019-02-02T09:47:01.143Z,45.17
2019-02-02T09:48:01.135Z,45.47
2019-02-02T09:49:01.122Z,45.26
2019-02-02T09:50:01.124Z,45.57
2019-02-02T09:51:01.119Z,45.29
2019-02-02T09:52:01.087Z,45.26
2019-02-02T09:53:01.095Z,45.39
2019-02-02T09:54:01.064Z,45.47
2019-02-02T09:55:01.059Z,45.47
2019-02-02T09:56:01.079Z,45.37
2019-02-02T09:57:01.043Z,45.67
2019-02-02T09:58:01.020Z,45.47
2019-02-02T09:59:01.167Z,45.57
2019-02-02T10:00:01.166Z,45.47
2019-02-02T10:01:00.999Z,45.67
2019-02-02T10:02:01.019Z,45.67
2019-02-02T10:03:01.019Z,45.67
2019-02-02T10:04:00.966Z,45.47
2019-02-02T10:05:00.946Z,45.67
2019-02-02T10:06:00.991Z,45.67
2019-02-02T10:07:00.933Z,45.97
2019-02-02T10:08:00.938Z,45.57
2019-02-02T10:09:00.932Z,45.97
2019-02-02T10:10:00.920Z,45.47
2019-02-02T10:11:01.065Z,45.57
2019-02-02T10:12:00.887Z,45.37
2019-02-02T10:13:00.877Z,45.47
2019-02-02T10:14:00.882Z,45.97
2019-02-02T10:15:00.851Z,45.77
2019-02-02T10:16:00.826Z,45.47
2019-02-02T10:17:00.872Z,45.47
2019-02-02T10:18:00.808Z,45.47
2019-02-02T10:19:00.791Z,46.27
2019-02-02T10:20:00.893Z,46.17
2019-02-02T10:21:04.215Z,46.37
2019-02-02T10:22:00.767Z,45.87
2019-02-02T10:23:00.789Z,46.27
2019-02-02T10:24:00.764Z,45.77
2019-02-02T10:25:00.767Z,45.87
2019-02-02T10:26:00.729Z,46.07
2019-02-02T10:27:00.706Z,45.54
2019-02-02T10:28:00.745Z,45.57
2019-02-02T10:29:00.694Z,45.84
2019-02-02T10:30:00.688Z,46.15
2019-02-02T10:31:00.684Z,45.45
2019-02-02T10:32:00.692Z,45.84
2019-02-02T10:33:00.699Z,45.65
2019-02-02T10:34:00.654Z,45.02
2019-02-02T10:35:00.712Z,44.38
2019-02-02T10:36:00.632Z,43.74
2019-02-02T10:37:00.609Z,43.32
2019-02-02T10:38:00.633Z,42.57
2019-02-02T10:39:00.623Z,41.08
2019-02-02T10:40:00.641Z,41.66
2019-02-02T10:41:00.571Z,41.24
2019-02-02T10:42:00.547Z,40.92
2019-02-02T10:43:00.546Z,40.20
2019-02-02T10:44:00.556Z,40.10
2019-02-02T10:45:00.665Z,40.08
2019-02-02T10:46:00.530Z,39.48
2019-02-02T10:47:00.509Z,39.36
2019-02-02T10:48:00.497Z,39.66
2019-02-02T10:49:00.501Z,39.36
2019-02-02T10:50:00.467Z,38.84
2019-02-02T10:51:00.450Z,39.14
2019-02-02T10:52:00.448Z,38.95
2019-02-02T10:53:00.429Z,38.95
2019-02-02T10:54:00.444Z,38.93
2019-02-02T10:55:00.495Z,38.73
2019-02-02T10:56:00.417Z,38.93
2019-02-02T10:57:00.388Z,38.63
2019-02-02T10:58:00.387Z,38.82
2019-02-02T10:59:00.375Z,38.82
2019-02-02T11:00:00.534Z,38.73
2019-02-02T11:01:00.351Z,38.73
2019-02-02T11:02:00.361Z,38.53
2019-02-02T11:03:00.326Z,38.73
2019-02-02T11:04:00.308Z,38.73
2019-02-02T11:05:00.401Z,39.12
2019-02-02T11:06:00.302Z,38.93
2019-02-02T11:07:00.331Z,38.95
2019-02-02T11:08:00.292Z,38.75
2019-02-02T11:09:00.377Z,38.75
2019-02-02T11:10:00.403Z,39.46
2019-02-02T11:11:00.334Z,39.46
2019-02-02T11:12:00.332Z,39.56
2019-02-02T11:13:00.319Z,39.56
2019-02-02T11:14:00.190Z,39.46
2019-02-02T11:15:00.413Z,38.96
2019-02-02T11:16:00.260Z,40.16
2019-02-02T11:17:00.338Z,40.06
2019-02-02T11:18:00.231Z,40.08
2019-02-02T11:19:00.157Z,40.48
2019-02-02T11:20:00.376Z,40.66
2019-02-02T11:21:00.387Z,40.08
2019-02-02T11:22:00.129Z,40.38
2019-02-02T11:23:00.131Z,40.28
2019-02-02T11:24:00.111Z,40.80
2019-02-02T11:25:00.355Z,40.50
2019-02-02T11:26:00.120Z,40.72
2019-02-02T11:27:00.067Z,40.72
2019-02-02T11:28:00.101Z,41.41
2019-02-02T11:29:00.047Z,41.31
2019-02-02T11:30:00.102Z,40.64
2019-02-02T11:31:00.030Z,40.83
2019-02-02T11:32:02.958Z,40.53
2019-02-02T11:33:00.054Z,41.63
2019-02-02T11:33:59.987Z,41.44
2019-02-02T11:34:59.967Z,41.74
2019-02-02T11:35:59.976Z,41.74
2019-02-02T11:36:59.950Z,41.33
2019-02-02T11:37:59.947Z,41.24
2019-02-02T11:38:59.997Z,41.05
2019-02-02T11:39:59.940Z,41.85
2019-02-02T11:40:59.911Z,42.05
2019-02-02T11:41:59.918Z,41.96
2019-02-02T11:42:59.892Z,42.27
2019-02-02T11:43:59.872Z,42.76
2019-02-02T11:44:59.929Z,42.07
2019-02-02T11:45:59.852Z,42.57
2019-02-02T11:46:59.846Z,42.38
2019-02-02T11:47:59.869Z,42.38
2019-02-02T11:48:59.834Z,42.49
2019-02-02T11:49:59.810Z,42.90
2019-02-02T11:50:59.866Z,42.49
2019-02-02T11:51:59.782Z,42.69
2019-02-02T11:52:59.788Z,42.90
2019-02-02T11:53:59.779Z,43.32
2019-02-02T11:54:59.766Z,43.12
2019-02-02T11:55:59.752Z,43.71
2019-02-02T11:56:59.790Z,43.21
2019-02-02T11:57:59.745Z,43.21
2019-02-02T11:58:59.714Z,43.62
2019-02-02T11:59:59.697Z,43.21
2019-02-02T12:00:59.714Z,43.21
2019-02-02T12:01:59.686Z,44.12
2019-02-02T12:02:59.733Z,44.12
2019-02-02T12:03:59.668Z,43.71
2019-02-02T12:04:59.666Z,44.12
2019-02-02T12:05:59.659Z,44.12
2019-02-02T12:06:59.639Z,43.51
2019-02-02T12:07:59.641Z,43.82
2019-02-02T12:08:59.692Z,43.82
2019-02-02T12:09:59.594Z,43.82
2019-02-02T12:10:59.587Z,44.32
2019-02-02T12:11:59.588Z,43.91
2019-02-02T12:12:59.606Z,43.91
2019-02-02T12:13:59.606Z,44.42
2019-02-02T12:14:59.567Z,44.32
2019-02-02T12:15:59.536Z,44.21
2019-02-02T12:16:59.527Z,44.32
2019-02-02T12:17:59.506Z,45.04
2019-02-02T12:18:59.512Z,44.62
2019-02-02T12:19:59.534Z,44.54
2019-02-02T12:20:59.494Z,44.84
2019-02-02T12:21:59.456Z,44.21
2019-02-02T12:22:59.449Z,44.84
2019-02-02T12:23:59.447Z,44.64
2019-02-02T12:25:01.666Z,44.34
2019-02-02T12:25:59.434Z,44.34
2019-02-02T12:26:59.410Z,44.82
2019-02-02T12:27:59.415Z,44.34
2019-02-02T12:28:59.371Z,44.43
2019-02-02T12:29:59.397Z,44.24
2019-02-02T12:30:59.404Z,44.34
2019-02-02T12:31:59.356Z,44.54
2019-02-02T12:32:59.397Z,45.14
2019-02-02T12:33:59.331Z,44.43
2019-02-02T12:34:59.332Z,44.64
2019-02-02T12:35:59.311Z,44.43
2019-02-02T12:36:59.312Z,45.34
2019-02-02T12:37:59.292Z,45.64
2019-02-02T12:38:59.323Z,45.14
2019-02-02T12:39:59.292Z,45.24
2019-02-02T12:40:59.831Z,45.04
2019-02-02T12:41:59.251Z,45.46
2019-02-02T12:42:59.251Z,45.56
2019-02-02T12:43:59.246Z,45.86
2019-02-02T12:44:59.256Z,45.86
2019-02-02T12:45:59.206Z,45.86
2019-02-02T12:46:59.192Z,45.36
2019-02-02T12:47:59.189Z,45.46
2019-02-02T12:48:59.173Z,45.36
2019-02-02T12:49:59.186Z,45.56
2019-02-02T12:50:59.196Z,45.56
2019-02-02T12:51:59.130Z,45.16